createdAt,value
2019-01-13T00:00:55.273Z,0.69
2019-01-13T00:03:43.214Z,0.72
2019-01-13T00:06:11.882Z,0.76
2019-01-13T00:08:59.675Z,0.74
2019-01-13T00:11:47.613Z,0.76
2019-01-13T00:14:35.554Z,0.75
2019-01-13T00:17:23.466Z,0.78
2019-01-13T00:20:11.690Z,0.80
2019-01-13T00:22:40.470Z,0.80
2019-01-13T00:28:02.557Z,0.88
2019-01-13T00:30:31.251Z,0.86
2019-01-13T00:33:19.160Z,0.92
2019-01-13T00:36:07.063Z,0.94
2019-01-13T00:38:54.977Z,0.94
2019-01-13T00:41:23.675Z,1.00
2019-01-13T00:44:11.518Z,0.98
2019-01-13T00:46:59.355Z,1.01
2019-01-13T00:49:47.188Z,1.06
2019-01-13T00:52:15.880Z,1.10
2019-01-13T00:55:03.840Z,1.06
2019-01-13T00:57:51.947Z,1.10
2019-01-13T01:01:00.387Z,1.11
2019-01-13T01:03:48.267Z,1.17
2019-01-13T01:06:36.267Z,1.20
2019-01-13T01:09:44.760Z,1.21
2019-01-13T01:12:53.211Z,1.26
2019-01-13T01:15:41.033Z,1.22
2019-01-13T01:18:29.000Z,1.27
2019-01-13T01:21:16.912Z,1.33
2019-01-13T01:24:04.804Z,1.30
2019-01-13T01:26:52.619Z,1.33
2019-01-13T01:29:40.461Z,1.44
2019-01-13T01:34:56.716Z,1.52
2019-01-13T01:37:44.635Z,1.50
2019-01-13T01:40:53.106Z,1.51
2019-01-13T01:43:21.809Z,1.49
2019-01-13T01:46:09.755Z,1.53
2019-01-13T01:48:38.472Z,1.65
2019-01-13T01:51:07.131Z,1.56
2019-01-13T01:53:55.112Z,1.58
2019-01-13T01:56:42.937Z,1.60
2019-01-13T01:59:30.877Z,1.55
2019-01-13T02:01:59.538Z,1.59
2019-01-13T02:04:47.410Z,1.56
2019-01-13T02:07:16.084Z,1.64
2019-01-13T02:10:04.044Z,1.65
2019-01-13T02:12:52.028Z,1.65
2019-01-13T02:15:39.961Z,1.72
2019-01-13T02:18:08.650Z,1.69
2019-01-13T02:20:56.559Z,1.68
2019-01-13T02:23:44.495Z,1.71
2019-01-13T02:26:32.326Z,1.75
2019-01-13T02:29:20.294Z,1.76
2019-01-13T02:31:48.989Z,1.71
2019-01-13T02:34:36.880Z,1.78
2019-01-13T02:37:45.332Z,1.85
2019-01-13T02:40:53.795Z,1.87
2019-01-13T02:43:41.639Z,1.86
2019-01-13T02:46:29.551Z,1.88
2019-01-13T02:49:17.397Z,1.79
2019-01-13T02:52:05.282Z,1.85
2019-01-13T02:54:53.180Z,1.88
2019-01-13T02:57:21.888Z,1.84
2019-01-13T03:00:09.851Z,1.91
2019-01-13T03:02:57.631Z,1.84
2019-01-13T03:13:28.931Z,1.69
2019-01-13T03:16:16.925Z,1.64
2019-01-13T03:19:25.405Z,1.69
2019-01-13T03:22:13.175Z,1.67
2019-01-13T03:25:01.251Z,1.74
2019-01-13T03:27:50.617Z,1.75
2019-01-13T03:33:39.720Z,1.71
2019-01-13T03:36:27.646Z,1.68
2019-01-13T03:39:15.598Z,1.70
2019-01-13T03:42:03.547Z,1.70
2019-01-13T03:44:32.215Z,1.68
2019-01-13T03:47:20.161Z,1.66
2019-01-13T03:50:07.946Z,1.71
2019-01-13T03:53:16.435Z,1.76
2019-01-13T03:55:45.070Z,1.85
2019-01-13T03:58:33.023Z,1.88
2019-01-13T04:01:20.804Z,1.80
2019-01-13T04:03:49.491Z,1.85
2019-01-13T04:06:37.451Z,1.87
2019-01-13T04:09:45.948Z,1.91
2019-01-13T04:12:33.870Z,1.93
2019-01-13T04:15:21.871Z,1.93
2019-01-13T04:18:30.375Z,2.08
2019-01-13T04:23:53.446Z,1.88
2019-01-13T04:26:41.384Z,1.79
2019-01-13T04:29:29.277Z,1.77
2019-01-13T04:32:17.079Z,1.74
2019-01-13T04:39:55.152Z,1.73
2019-01-13T04:42:43.074Z,1.77
2019-01-13T04:48:25.405Z,1.80
2019-01-13T04:51:13.199Z,1.80
2019-01-13T04:56:54.571Z,1.85
2019-01-13T04:59:23.267Z,1.83
2019-01-13T05:02:11.147Z,1.86
2019-01-13T05:04:39.818Z,1.79
2019-01-13T05:09:43.128Z,1.81
2019-01-13T05:12:30.946Z,1.82
2019-01-13T05:14:59.598Z,1.81
2019-01-13T05:17:28.317Z,1.82
2019-01-13T05:20:16.106Z,1.88
2019-01-13T05:22:44.872Z,1.85
2019-01-13T05:28:08.081Z,1.85
2019-01-13T05:30:55.869Z,1.79
2019-01-13T05:33:24.582Z,1.79
2019-01-13T05:36:12.478Z,1.78
2019-01-13T05:38:41.145Z,1.82
2019-01-13T05:41:28.961Z,1.80
2019-01-13T05:44:16.863Z,1.85
2019-01-13T05:46:45.565Z,1.84
2019-01-13T05:49:33.409Z,1.83
2019-01-13T05:52:21.376Z,1.88
2019-01-13T05:54:50.042Z,1.90
2019-01-13T05:57:18.712Z,1.92
2019-01-13T06:02:42.645Z,1.90
2019-01-13T06:05:11.390Z,1.91
2019-01-13T06:07:40.032Z,1.91
2019-01-13T06:10:48.523Z,1.93
2019-01-13T06:13:17.192Z,1.96
2019-01-13T06:15:45.909Z,1.95
2019-01-13T06:18:33.661Z,1.97
2019-01-13T06:21:21.603Z,1.99
2019-01-13T06:24:09.562Z,1.97
2019-01-13T06:26:38.286Z,1.98
2019-01-13T06:29:06.995Z,1.97
2019-01-13T06:31:35.711Z,1.95
2019-01-13T06:34:18.680Z,1.95
2019-01-13T06:36:34.799Z,1.96
2019-01-13T06:41:58.498Z,2.02
2019-01-13T06:44:27.160Z,2.01
2019-01-13T06:46:55.867Z,2.01
2019-01-13T06:52:13.865Z,2.01
2019-01-13T06:55:01.819Z,2.00
2019-01-13T06:57:49.599Z,2.02
2019-01-13T07:00:58.074Z,2.00
2019-01-13T07:03:26.724Z,1.94
2019-01-13T07:06:14.678Z,2.02
2019-01-13T07:08:43.403Z,2.03
2019-01-13T07:11:31.288Z,2.02
2019-01-13T07:13:59.948Z,2.01
2019-01-13T07:16:47.834Z,2.03
2019-01-13T07:19:16.531Z,2.03
2019-01-13T07:22:04.501Z,2.05
2019-01-13T07:24:33.157Z,2.07
2019-01-13T07:27:21.104Z,2.13
2019-01-13T07:29:49.866Z,2.14
2019-01-13T07:32:37.715Z,2.09
2019-01-13T07:35:46.179Z,2.11
2019-01-13T07:38:15.147Z,2.16
2019-01-13T07:41:03.100Z,2.14
2019-01-13T07:43:31.786Z,2.18
2019-01-13T07:46:00.497Z,2.22
2019-01-13T07:48:29.140Z,2.19
2019-01-13T07:51:17.032Z,2.25
2019-01-13T07:53:46.006Z,2.26
2019-01-13T07:59:09.709Z,2.23
2019-01-13T08:01:38.362Z,2.25
2019-01-13T08:04:07.053Z,2.27
2019-01-13T08:06:54.963Z,2.28
2019-01-13T08:09:42.854Z,2.22
2019-01-13T08:12:30.796Z,2.25
2019-01-13T08:14:59.962Z,2.36
2019-01-13T08:17:28.727Z,2.46
2019-01-13T08:20:37.649Z,2.48
2019-01-13T08:23:06.959Z,2.49
2019-01-13T08:28:24.295Z,2.44
2019-01-13T08:31:12.383Z,2.43
2019-01-13T08:33:42.713Z,2.45
2019-01-13T08:36:11.535Z,2.38
2019-01-13T08:38:40.922Z,2.42
2019-01-13T08:41:10.402Z,2.41
2019-01-13T08:43:39.404Z,2.44
2019-01-13T08:46:08.058Z,2.39
2019-01-13T08:48:36.707Z,2.48
2019-01-13T08:51:06.232Z,2.43
2019-01-13T08:53:34.911Z,2.49
2019-01-13T08:56:43.668Z,2.44
2019-01-13T08:59:12.377Z,2.45
2019-01-13T09:01:41.065Z,2.48
2019-01-13T09:04:21.073Z,2.46
2019-01-13T09:07:10.614Z,2.56
2019-01-13T09:10:01.160Z,2.57
2019-01-13T09:12:56.655Z,2.60
2019-01-13T09:15:42.853Z,2.63
2019-01-13T09:18:11.642Z,2.63
2019-01-13T09:23:39.677Z,2.61
2019-01-13T09:26:08.464Z,2.55
2019-01-13T09:31:32.384Z,2.55
2019-01-13T09:34:20.752Z,2.62
2019-01-13T09:36:49.854Z,2.56
2019-01-13T09:39:19.320Z,2.57
2019-01-13T09:42:07.847Z,2.60
2019-01-13T09:44:37.080Z,2.62
2019-01-13T09:47:06.286Z,2.60
2019-01-13T09:49:34.981Z,2.62
2019-01-13T09:54:59.400Z,2.58
2019-01-13T09:57:47.535Z,2.60
2019-01-13T10:00:35.494Z,2.66
2019-01-13T10:03:24.818Z,2.60
2019-01-13T10:05:54.103Z,2.60
2019-01-13T10:13:58.349Z,2.61
2019-01-13T10:16:46.787Z,2.62
2019-01-13T10:19:15.885Z,2.64
2019-01-13T10:21:44.936Z,2.64
2019-01-13T10:24:15.860Z,2.62
2019-01-13T10:26:44.717Z,2.60
2019-01-13T10:29:13.426Z,2.54
2019-01-13T10:32:01.255Z,2.55
2019-01-13T10:34:30.857Z,2.53
2019-01-13T10:36:59.555Z,2.48
2019-01-13T10:39:47.374Z,2.51
2019-01-13T10:42:16.078Z,2.47
2019-01-13T10:44:44.965Z,2.40
2019-01-13T10:47:13.813Z,2.45
2019-01-13T10:49:42.596Z,2.41
2019-01-13T10:52:11.297Z,2.40
2019-01-13T10:54:59.291Z,2.37
2019-01-13T10:57:28.059Z,2.34
2019-01-13T10:59:56.751Z,2.30
2019-01-13T11:02:25.410Z,2.26
2019-01-13T11:05:13.674Z,2.20
2019-01-13T11:08:22.151Z,2.14
2019-01-13T11:10:50.853Z,2.15
2019-01-13T11:13:19.586Z,2.13
2019-01-13T11:15:48.300Z,2.09
2019-01-13T11:18:16.961Z,2.05
2019-01-13T11:20:45.601Z,2.09
2019-01-13T11:23:14.311Z,1.99
2019-01-13T11:25:42.979Z,2.01
2019-01-13T11:28:11.745Z,1.95
2019-01-13T11:30:40.532Z,2.00
2019-01-13T11:33:09.942Z,2.06
2019-01-13T11:35:39.618Z,2.07
2019-01-13T11:38:08.375Z,2.06
2019-01-13T11:40:37.091Z,2.12
2019-01-13T11:43:05.795Z,2.10
2019-01-13T11:45:34.451Z,2.19
2019-01-13T11:48:03.284Z,2.20
2019-01-13T11:50:31.947Z,2.14
2019-01-13T11:53:00.613Z,2.13
2019-01-13T11:55:29.287Z,2.19
2019-01-13T11:57:57.993Z,2.29
2019-01-13T12:00:45.995Z,2.28
2019-01-13T12:03:17.122Z,2.41
2019-01-13T12:05:45.426Z,2.44
2019-01-13T12:08:14.127Z,2.43
2019-01-13T12:10:42.788Z,2.45
2019-01-13T12:13:11.505Z,2.53
2019-01-13T12:15:40.271Z,2.54
2019-01-13T12:18:09.035Z,2.52
2019-01-13T12:20:37.841Z,2.54
2019-01-13T12:23:06.535Z,2.54
2019-01-13T12:25:54.479Z,2.56
2019-01-13T12:28:42.413Z,2.60
2019-01-13T12:31:11.098Z,2.59
2019-01-13T12:33:39.753Z,2.63
2019-01-13T12:36:08.454Z,2.60
2019-01-13T12:38:56.360Z,2.59
2019-01-13T12:41:25.129Z,2.61
2019-01-13T12:43:53.880Z,2.60
2019-01-13T12:46:22.583Z,2.68
2019-01-13T12:51:38.999Z,2.68
2019-01-13T12:54:07.720Z,2.69
2019-01-13T12:56:36.428Z,2.70
2019-01-13T12:59:05.167Z,2.72
2019-01-13T13:01:33.826Z,2.83
2019-01-13T13:04:02.514Z,2.83
2019-01-13T13:06:31.164Z,2.85
2019-01-13T13:08:59.878Z,2.87
2019-01-13T13:11:47.805Z,2.85
2019-01-13T13:14:16.504Z,2.90
2019-01-13T13:16:45.274Z,2.88
2019-01-13T13:19:13.932Z,2.89
2019-01-13T13:21:42.628Z,2.90
2019-01-13T13:24:11.306Z,2.91
2019-01-13T13:26:40.071Z,2.86
2019-01-13T13:32:15.706Z,2.82
2019-01-13T13:34:44.452Z,2.84
2019-01-13T13:37:13.195Z,2.87
2019-01-13T13:39:41.890Z,2.86
2019-01-13T13:42:29.723Z,2.90
2019-01-13T13:44:58.447Z,2.96
2019-01-13T13:47:27.143Z,2.98
2019-01-13T13:50:14.993Z,2.97
2019-01-13T13:52:43.689Z,3.05
2019-01-13T13:55:31.727Z,3.12
2019-01-13T13:58:40.193Z,3.03
2019-01-13T14:01:08.950Z,3.10
2019-01-13T14:03:37.640Z,3.10
2019-01-13T14:08:55.616Z,3.16
2019-01-13T14:11:43.451Z,3.10
2019-01-13T14:14:31.411Z,3.15
2019-01-13T14:17:19.187Z,3.20
2019-01-13T14:19:47.903Z,3.18
2019-01-13T14:22:35.844Z,3.20
2019-01-13T14:25:25.270Z,3.21
2019-01-13T14:27:53.920Z,3.20
2019-01-13T14:31:02.420Z,3.27
2019-01-13T14:33:31.075Z,3.32
2019-01-13T14:35:59.778Z,3.41
2019-01-13T14:38:28.473Z,3.43
2019-01-13T14:40:57.132Z,3.42
2019-01-13T14:43:25.928Z,3.42
2019-01-13T14:45:54.594Z,3.39
2019-01-13T14:48:23.239Z,3.41
2019-01-13T14:50:52.027Z,3.45
2019-01-13T14:53:39.947Z,3.51
2019-01-13T14:58:43.248Z,3.52
2019-01-13T15:01:11.942Z,3.57
2019-01-13T15:03:40.602Z,3.59
2019-01-13T15:06:09.406Z,3.66
2019-01-13T15:08:38.049Z,3.69
2019-01-13T15:13:41.159Z,3.75
2019-01-13T15:16:10.275Z,3.80
2019-01-13T15:18:40.227Z,3.83
2019-01-13T15:21:08.907Z,3.78
2019-01-13T15:23:56.805Z,3.87
2019-01-13T15:26:25.558Z,3.92
2019-01-13T15:29:13.517Z,3.96
2019-01-13T15:32:01.358Z,4.02
2019-01-13T15:34:30.055Z,4.05
2019-01-13T15:36:58.722Z,3.99
2019-01-13T15:39:27.489Z,4.22
2019-01-13T15:41:56.149Z,4.15
2019-01-13T15:44:24.836Z,4.07
2019-01-13T15:47:12.701Z,4.20
2019-01-13T15:49:41.404Z,4.24
2019-01-13T15:52:29.324Z,4.22
2019-01-13T15:54:58.025Z,4.22
2019-01-13T15:57:26.680Z,4.24
2019-01-13T15:59:55.378Z,4.21
2019-01-13T16:02:24.078Z,4.26
2019-01-13T16:04:52.785Z,4.26
2019-01-13T16:07:21.439Z,4.22
2019-01-13T16:09:50.092Z,4.27
2019-01-13T16:12:37.983Z,4.25
2019-01-13T16:15:46.460Z,4.33
2019-01-13T16:18:15.112Z,4.33
2019-01-13T16:20:43.821Z,4.36
2019-01-13T16:23:12.479Z,4.40
2019-01-13T16:25:41.161Z,4.34
2019-01-13T16:28:09.810Z,4.35
2019-01-13T16:30:38.465Z,4.39
2019-01-13T16:33:07.144Z,4.40
2019-01-13T16:35:35.800Z,4.34
2019-01-13T16:40:59.658Z,4.40
2019-01-13T16:43:47.572Z,4.41
2019-01-13T16:51:45.904Z,4.41
2019-01-13T16:54:14.600Z,4.50
2019-01-13T16:56:50.283Z,4.45
2019-01-13T16:59:18.936Z,4.58
2019-01-13T17:01:47.704Z,4.56
2019-01-13T17:04:35.613Z,4.54
2019-01-13T17:07:04.458Z,4.60
2019-01-13T17:09:33.109Z,4.54
2019-01-13T17:12:21.004Z,4.61
2019-01-13T17:14:49.714Z,4.68
2019-01-13T17:17:18.362Z,4.63
2019-01-13T17:19:47.083Z,4.58
2019-01-13T17:22:35.034Z,4.61
2019-01-13T17:28:11.888Z,4.68
2019-01-13T17:30:59.934Z,4.74
2019-01-13T17:33:47.879Z,4.73
2019-01-13T17:36:16.600Z,4.77
2019-01-13T17:39:04.423Z,4.73
2019-01-13T17:41:33.139Z,4.82
2019-01-13T17:44:01.836Z,4.78
2019-01-13T17:46:30.492Z,4.77
2019-01-13T17:49:18.354Z,4.74
2019-01-13T17:51:47.010Z,4.85
2019-01-13T17:54:34.844Z,4.88
2019-01-13T17:57:03.499Z,4.83
2019-01-13T17:59:51.466Z,4.85
2019-01-13T18:02:39.364Z,4.87
2019-01-13T18:05:47.839Z,4.91
2019-01-13T18:08:35.711Z,4.91
2019-01-13T18:11:04.370Z,4.88
2019-01-13T18:13:52.319Z,4.87
2019-01-13T18:16:21.029Z,4.87
2019-01-13T18:18:49.671Z,4.87
2019-01-13T18:21:37.655Z,4.89
2019-01-13T18:24:25.502Z,4.96
2019-01-13T18:27:13.325Z,4.94
2019-01-13T18:29:41.976Z,4.87
2019-01-13T18:32:29.954Z,4.91
2019-01-13T18:34:58.719Z,4.88
2019-01-13T18:37:46.632Z,4.91
2019-01-13T18:40:55.125Z,4.86
2019-01-13T18:43:23.785Z,4.84
2019-01-13T18:45:52.488Z,4.90
2019-01-13T18:48:21.148Z,4.88
2019-01-13T18:50:49.807Z,4.91
2019-01-13T18:53:18.500Z,4.92
2019-01-13T18:55:47.149Z,4.90
2019-01-13T19:00:50.409Z,4.97
2019-01-13T19:03:38.375Z,4.93
2019-01-13T19:06:07.454Z,4.91
2019-01-13T19:08:55.233Z,4.95
2019-01-13T19:11:23.942Z,4.96
2019-01-13T19:14:32.441Z,5.00
2019-01-13T19:17:20.399Z,4.98
2019-01-13T19:20:08.242Z,4.99
2019-01-13T19:22:36.954Z,5.00
2019-01-13T19:25:45.434Z,4.98
2019-01-13T19:28:14.086Z,5.11
2019-01-13T19:31:01.929Z,5.00
2019-01-13T19:33:30.612Z,5.10
2019-01-13T19:38:53.130Z,5.08
2019-01-13T19:44:50.547Z,5.07
2019-01-13T19:47:19.250Z,5.15
2019-01-13T19:49:47.959Z,5.15
2019-01-13T19:52:35.878Z,5.16
2019-01-13T19:55:44.463Z,5.21
2019-01-13T19:58:13.189Z,5.23
2019-01-13T20:00:41.888Z,5.27
2019-01-13T20:03:29.891Z,5.32
2019-01-13T20:05:58.685Z,5.29
2019-01-13T20:08:49.916Z,5.30
2019-01-13T20:11:18.601Z,5.41
2019-01-13T20:13:47.288Z,5.34
2019-01-13T20:16:35.277Z,5.36
2019-01-13T20:19:03.994Z,5.37
2019-01-13T20:21:32.695Z,5.38
2019-01-13T20:24:01.394Z,5.30
2019-01-13T20:26:30.191Z,5.37
2019-01-13T20:28:58.910Z,5.41
2019-01-13T20:31:46.972Z,5.44
2019-01-13T20:34:34.858Z,5.40
2019-01-13T20:37:03.586Z,5.38
2019-01-13T20:39:32.326Z,5.39
2019-01-13T20:42:01.028Z,5.39
2019-01-13T20:44:29.683Z,5.41
2019-01-13T20:47:17.636Z,5.46
2019-01-13T20:49:46.411Z,5.57
2019-01-13T20:52:15.171Z,5.59
2019-01-13T20:54:43.966Z,5.70
2019-01-13T20:57:12.628Z,5.76
2019-01-13T20:59:41.438Z,5.74
2019-01-13T21:02:10.109Z,5.76
2019-01-13T21:04:38.831Z,5.77
2019-01-13T21:07:07.529Z,5.79
2019-01-13T21:09:36.190Z,5.88
2019-01-13T21:12:04.956Z,5.90
2019-01-13T21:14:52.790Z,5.97
2019-01-13T21:17:40.583Z,5.89
2019-01-13T21:20:49.778Z,5.85
2019-01-13T21:23:18.443Z,5.79
2019-01-13T21:26:06.292Z,5.77
2019-01-13T21:28:35.092Z,5.83
2019-01-13T21:31:03.745Z,5.77
2019-01-13T21:33:32.449Z,5.79
2019-01-13T21:36:01.112Z,5.79
2019-01-13T21:38:29.841Z,5.76
2019-01-13T21:41:19.368Z,5.70
2019-01-13T21:43:48.133Z,5.76
2019-01-13T21:46:16.850Z,5.69
2019-01-13T21:48:45.499Z,5.73
2019-01-13T21:51:33.582Z,5.79
2019-01-13T21:56:52.090Z,5.90
2019-01-13T21:59:20.806Z,5.94
2019-01-13T22:01:49.458Z,5.86
2019-01-13T22:04:18.239Z,5.78
2019-01-13T22:06:46.893Z,5.76
2019-01-13T22:09:15.632Z,5.80
2019-01-13T22:11:44.623Z,5.79
2019-01-13T22:14:13.257Z,5.79
2019-01-13T22:16:41.950Z,5.77
2019-01-13T22:19:10.685Z,5.79
2019-01-13T22:21:39.436Z,5.80
2019-01-13T22:24:20.213Z,5.76
2019-01-13T22:26:38.460Z,5.79
2019-01-13T22:29:07.345Z,5.79
2019-01-13T22:31:36.000Z,5.81
2019-01-13T22:34:04.771Z,5.91
2019-01-13T22:36:33.554Z,5.92
2019-01-13T22:39:02.324Z,6.11
2019-01-13T22:41:30.969Z,6.13
2019-01-13T22:43:59.670Z,6.12
2019-01-13T22:46:28.327Z,6.18
2019-01-13T22:48:57.044Z,6.16
2019-01-13T22:51:25.754Z,6.07
2019-01-13T22:53:54.509Z,5.94
2019-01-13T22:56:23.326Z,5.93
2019-01-13T22:58:52.087Z,5.96
2019-01-13T23:02:00.555Z,5.94
2019-01-13T23:04:29.295Z,5.92
2019-01-13T23:06:57.970Z,5.90
2019-01-13T23:09:46.408Z,5.87
2019-01-13T23:12:15.098Z,5.80
2019-01-13T23:14:43.748Z,5.79
2019-01-13T23:17:12.556Z,5.83
2019-01-13T23:20:00.891Z,5.80
2019-01-13T23:22:29.545Z,5.77
2019-01-13T23:24:58.237Z,5.65
2019-01-13T23:27:26.968Z,5.58
2019-01-13T23:29:55.661Z,5.55
2019-01-13T23:32:24.451Z,5.51
2019-01-13T23:34:53.151Z,5.40
2019-01-13T23:37:21.802Z,5.35
2019-01-13T23:39:50.504Z,5.32
2019-01-13T23:42:19.268Z,5.26
2019-01-13T23:44:47.980Z,5.24
2019-01-13T23:47:16.747Z,5.21
2019-01-13T23:50:25.292Z,5.14
2019-01-13T23:55:48.359Z,5.03
2019-01-13T23:58:17.053Z,5.10
